sensor_id;sensor_type;location;lat;lon;timestamp;pressure;altitude;pressure_sealevel;temperature;humidity
67109;BME280;54027;50.786;7.058;2022-09-25T00:02:06;100881.72;;;14.13;75.25
67109;BME280;54027;50.786;7.058;2022-09-25T00:04:31;100886.09;;;14.12;75.06
67109;BME280;54027;50.786;7.058;2022-09-25T00:06:57;100883.28;;;14.18;75.08
67109;BME280;54027;50.786;7.058;2022-09-25T00:09:22;100890.34;;;14.15;74.95
67109;BME280;54027;50.786;7.058;2022-09-25T00:11:47;100881.91;;;14.08;75.08
67109;BME280;54027;50.786;7.058;2022-09-25T00:14:13;100884.41;;;14.11;74.85
67109;BME280;54027;50.786;7.058;2022-09-25T00:16:38;100880.13;;;14.09;75.09
67109;BME280;54027;50.786;7.058;2022-09-25T00:19:03;100886.94;;;14.13;74.73
67109;BME280;54027;50.786;7.058;2022-09-25T00:21:47;100891.81;;;13.97;75.53
67109;BME280;54027;50.786;7.058;2022-09-25T00:24:16;100894.88;;;14.10;74.92
67109;BME280;54027;50.786;7.058;2022-09-25T00:26:42;100890.34;;;14.15;74.54
67109;BME280;54027;50.786;7.058;2022-09-25T00:29:08;100889.56;;;14.13;74.28
67109;BME280;54027;50.786;7.058;2022-09-25T00:31:34;100886.19;;;14.09;74.76
67109;BME280;54027;50.786;7.058;2022-09-25T00:34:00;100887.06;;;14.10;74.53
67109;BME280;54027;50.786;7.058;2022-09-25T00:36:26;100889.47;;;14.16;74.42
67109;BME280;54027;50.786;7.058;2022-09-25T00:38:52;100888.78;;;14.11;74.25
67109;BME280;54027;50.786;7.058;2022-09-25T00:41:19;100887.94;;;14.09;74.83
67109;BME280;54027;50.786;7.058;2022-09-25T00:43:46;100877.38;;;14.13;74.55
67109;BME280;54027;50.786;7.058;2022-09-25T00:49:03;100880.31;;;14.03;74.39
67109;BME280;54027;50.786;7.058;2022-09-25T00:51:32;100883.66;;;14.08;74.33
67109;BME280;54027;50.786;7.058;2022-09-25T00:53:59;100876.66;;;14.08;74.07
67109;BME280;54027;50.786;7.058;2022-09-25T00:56:29;100876.72;;;14.07;74.09
67109;BME280;54027;50.786;7.058;2022-09-25T00:58:55;100880.41;;;14.00;74.73
67109;BME280;54027;50.786;7.058;2022-09-25T01:01:21;100877.72;;;14.03;74.20
67109;BME280;54027;50.786;7.058;2022-09-25T01:03:47;100883.66;;;14.08;74.09
67109;BME280;54027;50.786;7.058;2022-09-25T01:06:13;100883.75;;;14.05;74.23
67109;BME280;54027;50.786;7.058;2022-09-25T01:08:38;100883.78;;;14.03;74.15
67109;BME280;54027;50.786;7.058;2022-09-25T01:11:04;100878.53;;;14.05;73.84
67109;BME280;54027;50.786;7.058;2022-09-25T01:13:29;100879.63;;;13.98;74.77
67109;BME280;54027;50.786;7.058;2022-09-25T01:16:01;100886.59;;;13.97;74.97
67109;BME280;54027;50.786;7.058;2022-09-25T01:23:35;100881.03;;;14.08;74.12
67109;BME280;54027;50.786;7.058;2022-09-25T01:31:23;100880.31;;;14.03;74.23
67109;BME280;54027;50.786;7.058;2022-09-25T01:33:54;100880.31;;;14.03;74.18
67109;BME280;54027;50.786;7.058;2022-09-25T01:36:27;100881.25;;;14.02;74.27
67109;BME280;54027;50.786;7.058;2022-09-25T01:38:54;100877.81;;;14.00;74.24
67109;BME280;54027;50.786;7.058;2022-09-25T01:41:30;100879.53;;;14.01;74.34
67109;BME280;54027;50.786;7.058;2022-09-25T01:44:01;100877.56;;;14.07;73.89
67109;BME280;54027;50.786;7.058;2022-09-25T01:46:29;100881.28;;;14.00;74.42
67109;BME280;54027;50.786;7.058;2022-09-25T01:48:58;100882.19;;;13.99;74.71
67109;BME280;54027;50.786;7.058;2022-09-25T01:51:29;100884.06;;;13.96;74.69
67109;BME280;54027;50.786;7.058;2022-09-25T01:53:58;100879.69;;;13.96;74.20
67109;BME280;54027;50.786;7.058;2022-09-25T01:56:33;100880.31;;;14.03;74.24
67109;BME280;54027;50.786;7.058;2022-09-25T01:59:06;100880.38;;;14.01;73.86
67109;BME280;54027;50.786;7.058;2022-09-25T02:01:34;100883.13;;;13.97;73.92
67109;BME280;54027;50.786;7.058;2022-09-25T02:04:04;100890.63;;;14.07;73.86
67109;BME280;54027;50.786;7.058;2022-09-25T02:06:32;100887.25;;;14.04;73.81
67109;BME280;54027;50.786;7.058;2022-09-25T02:09:02;100883.88;;;14.00;74.26
67109;BME280;54027;50.786;7.058;2022-09-25T02:11:30;100888.47;;;13.94;74.80
67109;BME280;54027;50.786;7.058;2022-09-25T02:13:58;100883.19;;;13.95;74.89
67109;BME280;54027;50.786;7.058;2022-09-25T02:16:28;100880.47;;;13.98;74.67
67109;BME280;54027;50.786;7.058;2022-09-25T02:18:55;100883.19;;;13.95;75.19
67109;BME280;54027;50.786;7.058;2022-09-25T02:26:35;100884.63;;;14.05;74.69
67109;BME280;54027;50.786;7.058;2022-09-25T02:29:02;100877.88;;;13.98;75.27
67109;BME280;54027;50.786;7.058;2022-09-25T02:31:30;100884.53;;;14.07;74.70
67109;BME280;54027;50.786;7.058;2022-09-25T02:34:00;100894.41;;;13.99;75.12
67109;BME280;54027;50.786;7.058;2022-09-25T02:36:25;100883.75;;;14.05;74.54
67109;BME280;54027;50.786;7.058;2022-09-25T02:38:50;100886.59;;;13.97;75.28
67109;BME280;54027;50.786;7.058;2022-09-25T02:51:45;100889.00;;;14.03;75.10
67109;BME280;54027;50.786;7.058;2022-09-25T02:54:19;100883.03;;;14.00;75.13
67109;BME280;54027;50.786;7.058;2022-09-25T02:56:47;100891.81;;;13.97;75.32
67109;BME280;54027;50.786;7.058;2022-09-25T02:59:21;100885.44;;;14.06;75.30
67109;BME280;54027;50.786;7.058;2022-09-25T03:01:48;100884.66;;;14.04;75.71
67109;BME280;54027;50.786;7.058;2022-09-25T03:04:15;100886.25;;;14.08;75.67
67109;BME280;54027;50.786;7.058;2022-09-25T03:06:41;100887.13;;;14.08;75.38
67109;BME280;54027;50.786;7.058;2022-09-25T03:09:08;100886.28;;;14.06;75.68
67109;BME280;54027;50.786;7.058;2022-09-25T03:11:35;100882.81;;;14.06;75.88
67109;BME280;54027;50.786;7.058;2022-09-25T03:14:04;100887.91;;;14.10;75.48
67109;BME280;54027;50.786;7.058;2022-09-25T03:16:31;100891.59;;;14.05;75.54
67109;BME280;54027;50.786;7.058;2022-09-25T03:18:58;100888.03;;;14.07;75.77
67109;BME280;54027;50.786;7.058;2022-09-25T03:21:24;100888.91;;;14.06;75.82
67109;BME280;54027;50.786;7.058;2022-09-25T03:23:49;100894.41;;;13.99;75.97
67109;BME280;54027;50.786;7.058;2022-09-25T03:26:14;100891.59;;;14.05;75.61
67109;BME280;54027;50.786;7.058;2022-09-25T03:28:40;100885.34;;;14.09;75.29
67109;BME280;54027;50.786;7.058;2022-09-25T03:31:06;100887.06;;;14.10;75.56
67109;BME280;54027;50.786;7.058;2022-09-25T03:33:33;100885.41;;;14.07;75.54
67109;BME280;54027;50.786;7.058;2022-09-25T03:35:59;100888.03;;;14.07;75.86
67109;BME280;54027;50.786;7.058;2022-09-25T03:38:24;100883.66;;;14.08;75.47
67109;BME280;54027;50.786;7.058;2022-09-25T03:40:50;100881.03;;;14.08;75.59
67109;BME280;54027;50.786;7.058;2022-09-25T03:43:15;100887.06;;;14.10;75.62
67109;BME280;54027;50.786;7.058;2022-09-25T03:45:40;100887.13;;;14.08;75.69
67109;BME280;54027;50.786;7.058;2022-09-25T03:48:05;100879.31;;;14.07;75.59
67109;BME280;54027;50.786;7.058;2022-09-25T03:50:31;100879.31;;;14.07;75.59
67109;BME280;54027;50.786;7.058;2022-09-25T03:52:56;100882.94;;;14.03;75.05
67109;BME280;54027;50.786;7.058;2022-09-25T03:55:21;100884.75;;;14.01;75.71
67109;BME280;54027;50.786;7.058;2022-09-25T03:57:46;100887.44;;;13.99;75.90
67109;BME280;54027;50.786;7.058;2022-09-25T04:00:12;100886.47;;;14.02;75.35
67109;BME280;54027;50.786;7.058;2022-09-25T04:02:37;100887.47;;;13.98;75.42
67109;BME280;54027;50.786;7.058;2022-09-25T04:05:02;100883.03;;;14.00;75.38
67109;BME280;54027;50.786;7.058;2022-09-25T04:07:28;100884.75;;;14.01;75.12
67109;BME280;54027;50.786;7.058;2022-09-25T04:09:53;100886.22;;;13.83;74.68
67109;BME280;54027;50.786;7.058;2022-09-25T04:12:18;100891.09;;;13.94;74.02
67109;BME280;54027;50.786;7.058;2022-09-25T04:14:45;100881.44;;;13.96;73.18
67109;BME280;54027;50.786;7.058;2022-09-25T04:17:10;100889.41;;;13.91;73.84
67109;BME280;54027;50.786;7.058;2022-09-25T04:19:36;100886.31;;;13.80;73.54
67109;BME280;54027;50.786;7.058;2022-09-25T04:22:01;100888.69;;;13.88;73.68
67109;BME280;54027;50.786;7.058;2022-09-25T04:24:26;100886.56;;;13.72;73.39
67109;BME280;54027;50.786;7.058;2022-09-25T04:27:10;100883.94;;;13.72;73.41
67109;BME280;54027;50.786;7.058;2022-09-25T04:29:35;100893.56;;;13.70;73.14
67109;BME280;54027;50.786;7.058;2022-09-25T04:32:01;100894.41;;;13.72;72.95
67109;BME280;54027;50.786;7.058;2022-09-25T04:34:45;100895.22;;;13.73;72.97
67109;BME280;54027;50.786;7.058;2022-09-25T04:37:10;100893.19;;;13.83;73.15
67109;BME280;54027;50.786;7.058;2022-09-25T04:39:38;100892.31;;;13.82;72.36
67109;BME280;54027;50.786;7.058;2022-09-25T04:42:03;100892.59;;;13.74;72.97
67109;BME280;54027;50.786;7.058;2022-09-25T04:44:29;100900.16;;;13.82;73.09
67109;BME280;54027;50.786;7.058;2022-09-25T04:46:55;100902.16;;;13.74;72.17
67109;BME280;54027;50.786;7.058;2022-09-25T04:49:20;100899.63;;;13.72;73.00
67109;BME280;54027;50.786;7.058;2022-09-25T04:51:45;100904.75;;;13.75;72.78
67109;BME280;54027;50.786;7.058;2022-09-25T04:54:10;100909.97;;;13.75;72.75
67109;BME280;54027;50.786;7.058;2022-09-25T04:56:36;100902.03;;;13.79;72.96
67109;BME280;54027;50.786;7.058;2022-09-25T04:59:01;100903.72;;;13.80;72.15
67109;BME280;54027;50.786;7.058;2022-09-25T05:01:26;100898.66;;;13.75;71.85
67109;BME280;54027;50.786;7.058;2022-09-25T05:03:51;100904.09;;;13.67;72.46
67109;BME280;54027;50.786;7.058;2022-09-25T05:06:20;100902.06;;;13.77;71.61
67109;BME280;54027;50.786;7.058;2022-09-25T05:08:46;100904.75;;;13.75;71.75
67109;BME280;54027;50.786;7.058;2022-09-25T05:11:13;100904.94;;;13.69;71.88
67109;BME280;54027;50.786;7.058;2022-09-25T05:13:38;100905.66;;;13.73;72.53
67109;BME280;54027;50.786;7.058;2022-09-25T05:16:05;100911.06;;;13.68;72.27
67109;BME280;54027;50.786;7.058;2022-09-25T05:18:30;100905.13;;;13.62;71.99
67109;BME280;54027;50.786;7.058;2022-09-25T05:20:56;100908.66;;;13.61;71.91
67109;BME280;54027;50.786;7.058;2022-09-25T05:23:22;100919.19;;;13.58;72.23
67109;BME280;54027;50.786;7.058;2022-09-25T05:25:51;100913.78;;;13.64;71.62
67109;BME280;54027;50.786;7.058;2022-09-25T05:28:16;100911.06;;;13.68;71.29
67109;BME280;54027;50.786;7.058;2022-09-25T05:30:42;100915.66;;;13.59;71.72
67109;BME280;54027;50.786;7.058;2022-09-25T05:33:08;100918.06;;;13.66;71.50
67109;BME280;54027;50.786;7.058;2022-09-25T05:35:33;100915.41;;;13.68;71.53
67109;BME280;54027;50.786;7.058;2022-09-25T05:37:59;100916.19;;;13.71;71.70
67109;BME280;54027;50.786;7.058;2022-09-25T05:40:24;100915.19;;;13.75;71.22
67109;BME280;54027;50.786;7.058;2022-09-25T05:42:50;100920.31;;;13.79;71.22
67109;BME280;54027;50.786;7.058;2022-09-25T05:45:16;100920.31;;;13.79;70.63
67109;BME280;54027;50.786;7.058;2022-09-25T05:47:42;100917.03;;;13.72;70.48
67109;BME280;54027;50.786;7.058;2022-09-25T05:50:09;100918.94;;;13.67;70.76
67109;BME280;54027;50.786;7.058;2022-09-25T05:52:34;100915.03;;;13.80;70.84
67109;BME280;54027;50.786;7.058;2022-09-25T05:55:00;100919.19;;;13.86;70.27
67109;BME280;54027;50.786;7.058;2022-09-25T05:57:29;100918.59;;;13.77;70.93
67109;BME280;54027;50.786;7.058;2022-09-25T05:59:54;100922.06;;;13.78;71.11
67109;BME280;54027;50.786;7.058;2022-09-25T06:02:19;100917.69;;;13.79;71.08
67109;BME280;54027;50.786;7.058;2022-09-25T06:04:45;100922.16;;;13.75;71.14
67109;BME280;54027;50.786;7.058;2022-09-25T06:07:10;100925.81;;;13.69;70.24
67109;BME280;54027;50.786;7.058;2022-09-25T06:09:35;100923.03;;;13.75;69.96
67109;BME280;54027;50.786;7.058;2022-09-25T06:12:01;100922.19;;;13.73;70.02
67109;BME280;54027;50.786;7.058;2022-09-25T06:14:26;100925.56;;;13.77;69.66
67109;BME280;54027;50.786;7.058;2022-09-25T06:16:51;100935.34;;;13.70;70.38
67109;BME280;54027;50.786;7.058;2022-09-25T06:19:17;100933.56;;;13.72;70.54
67109;BME280;54027;50.786;7.058;2022-09-25T06:21:42;100929.03;;;13.77;71.09
67109;BME280;54027;50.786;7.058;2022-09-25T06:24:08;100932.72;;;13.70;70.36
67109;BME280;54027;50.786;7.058;2022-09-25T06:26:34;100929.91;;;13.78;70.66
67109;BME280;54027;50.786;7.058;2022-09-25T06:29:00;100934.38;;;13.73;70.25
67109;BME280;54027;50.786;7.058;2022-09-25T06:31:26;100934.19;;;13.79;69.28
67109;BME280;54027;50.786;7.058;2022-09-25T06:33:51;100941.44;;;13.71;69.35
67109;BME280;54027;50.786;7.058;2022-09-25T06:36:17;100936.25;;;13.69;70.26
67109;BME280;54027;50.786;7.058;2022-09-25T06:38:42;100942.28;;;13.71;70.31
67109;BME280;54027;50.786;7.058;2022-09-25T06:41:07;100939.72;;;13.70;69.30
67109;BME280;54027;50.786;7.058;2022-09-25T06:43:32;100947.75;;;13.62;70.33
67109;BME280;54027;50.786;7.058;2022-09-25T06:45:58;100940.38;;;13.76;69.28
67109;BME280;54027;50.786;7.058;2022-09-25T06:48:25;100944.59;;;13.81;69.85
67109;BME280;54027;50.786;7.058;2022-09-25T06:50:51;100946.41;;;13.79;69.37
67109;BME280;54027;50.786;7.058;2022-09-25T06:53:17;100951.97;;;13.68;70.47
67109;BME280;54027;50.786;7.058;2022-09-25T06:55:43;100946.66;;;13.71;70.31
67109;BME280;54027;50.786;7.058;2022-09-25T06:58:10;100955.19;;;13.76;70.31
67109;BME280;54027;50.786;7.058;2022-09-25T07:00:37;100956.81;;;13.80;69.95
67109;BME280;54027;50.786;7.058;2022-09-25T07:03:03;100961.25;;;13.76;69.64
67109;BME280;54027;50.786;7.058;2022-09-25T07:05:47;100959.50;;;13.77;69.98
67109;BME280;54027;50.786;7.058;2022-09-25T07:08:13;100966.88;;;13.63;69.89
67109;BME280;54027;50.786;7.058;2022-09-25T07:10:49;100963.06;;;13.74;69.56
67109;BME280;54027;50.786;7.058;2022-09-25T07:13:16;100962.88;;;13.81;69.45
67109;BME280;54027;50.786;7.058;2022-09-25T07:15:41;100978.09;;;13.66;69.76
67109;BME280;54027;50.786;7.058;2022-09-25T07:18:07;100970.22;;;13.68;69.99
67109;BME280;54027;50.786;7.058;2022-09-25T07:20:32;100966.47;;;13.76;68.98
67109;BME280;54027;50.786;7.058;2022-09-25T07:22:58;100970.94;;;13.73;69.24
67109;BME280;54027;50.786;7.058;2022-09-25T07:25:27;100972.28;;;13.86;68.77
67109;BME280;54027;50.786;7.058;2022-09-25T07:27:53;100980.19;;;13.85;69.54
67109;BME280;54027;50.786;7.058;2022-09-25T07:30:19;100982.88;;;13.82;69.16
67109;BME280;54027;50.786;7.058;2022-09-25T07:32:44;100974.31;;;13.76;67.99
67109;BME280;54027;50.786;7.058;2022-09-25T07:35:09;100976.06;;;13.76;68.90
67109;BME280;54027;50.786;7.058;2022-09-25T07:37:35;100977.78;;;13.77;69.66
67109;BME280;54027;50.786;7.058;2022-09-25T07:40:06;100980.91;;;13.88;69.15
67109;BME280;54027;50.786;7.058;2022-09-25T07:42:32;100987.06;;;13.87;69.22
67109;BME280;54027;50.786;7.058;2022-09-25T07:44:57;100990.16;;;13.70;69.15
67109;BME280;54027;50.786;7.058;2022-09-25T07:47:22;100980.56;;;13.72;68.95
67109;BME280;54027;50.786;7.058;2022-09-25T07:49:47;100980.88;;;13.90;68.31
67109;BME280;54027;50.786;7.058;2022-09-25T07:52:13;100991.03;;;13.71;69.47
67109;BME280;54027;50.786;7.058;2022-09-25T07:54:38;100998.00;;;13.70;68.06
67109;BME280;54027;50.786;7.058;2022-09-25T07:57:05;100988.56;;;13.65;68.63
67109;BME280;54027;50.786;7.058;2022-09-25T07:59:30;100988.63;;;13.63;67.94
67109;BME280;54027;50.786;7.058;2022-09-25T08:01:56;100991.25;;;13.63;69.36
67109;BME280;54027;50.786;7.058;2022-09-25T08:04:22;100995.44;;;13.69;68.42
67109;BME280;54027;50.786;7.058;2022-09-25T08:06:47;100990.28;;;13.66;68.35
67109;BME280;54027;50.786;7.058;2022-09-25T08:09:12;100988.47;;;13.69;69.29
67109;BME280;54027;50.786;7.058;2022-09-25T08:11:37;100987.25;;;13.81;69.29
67109;BME280;54027;50.786;7.058;2022-09-25T08:14:03;100994.06;;;13.85;68.17
67109;BME280;54027;50.786;7.058;2022-09-25T08:16:28;100997.97;;;13.72;69.02
67109;BME280;54027;50.786;7.058;2022-09-25T08:18:53;100995.00;;;13.84;67.38
67109;BME280;54027;50.786;7.058;2022-09-25T08:21:19;100988.38;;;13.72;67.84
67109;BME280;54027;50.786;7.058;2022-09-25T08:23:47;100991.09;;;13.69;67.90
67109;BME280;54027;50.786;7.058;2022-09-25T08:26:14;100994.72;;;13.64;68.74
67109;BME280;54027;50.786;7.058;2022-09-25T08:28:39;100992.69;;;13.73;67.78
67109;BME280;54027;50.786;7.058;2022-09-25T08:31:04;100992.69;;;13.73;67.19
67109;BME280;54027;50.786;7.058;2022-09-25T08:33:30;100997.09;;;13.71;68.02
67109;BME280;54027;50.786;7.058;2022-09-25T08:35:57;101005.94;;;13.66;67.77
67109;BME280;54027;50.786;7.058;2022-09-25T08:38:22;101007.31;;;13.79;67.59
67109;BME280;54027;50.786;7.058;2022-09-25T08:43:17;101007.56;;;13.71;68.55
67109;BME280;54027;50.786;7.058;2022-09-25T08:45:44;101016.38;;;13.67;68.29
67109;BME280;54027;50.786;7.058;2022-09-25T08:48:30;101004.31;;;13.62;65.81
67109;BME280;54027;50.786;7.058;2022-09-25T08:51:15;101014.50;;;13.72;66.24
67109;BME280;54027;50.786;7.058;2022-09-25T08:53:40;101010.31;;;13.67;66.03
67109;BME280;54027;50.786;7.058;2022-09-25T08:56:11;101010.25;;;13.68;66.18
67109;BME280;54027;50.786;7.058;2022-09-25T08:58:52;101011.81;;;13.74;66.56
67109;BME280;54027;50.786;7.058;2022-09-25T09:01:29;101013.38;;;13.80;66.57
67109;BME280;54027;50.786;7.058;2022-09-25T09:04:02;101009.78;;;13.84;67.44
67109;BME280;54027;50.786;7.058;2022-09-25T09:06:32;101016.91;;;13.79;67.57
67109;BME280;54027;50.786;7.058;2022-09-25T09:09:03;101019.09;;;13.92;67.07
67109;BME280;54027;50.786;7.058;2022-09-25T09:11:31;101010.31;;;13.95;66.78
67109;BME280;54027;50.786;7.058;2022-09-25T09:14:00;101009.50;;;13.93;66.98
67109;BME280;54027;50.786;7.058;2022-09-25T09:16:29;101005.59;;;14.06;66.80
67109;BME280;54027;50.786;7.058;2022-09-25T09:18:56;101006.38;;;14.09;66.99
67109;BME280;54027;50.786;7.058;2022-09-25T09:24:06;101007.72;;;14.21;66.68
67109;BME280;54027;50.786;7.058;2022-09-25T09:32:31;100999.16;;;14.17;65.65
67109;BME280;54027;50.786;7.058;2022-09-25T09:47:33;101003.72;;;14.11;63.41
67109;BME280;54027;50.786;7.058;2022-09-25T09:52:44;100987.84;;;14.17;62.44
67109;BME280;54027;50.786;7.058;2022-09-25T09:55:25;100989.41;;;14.22;63.01
67109;BME280;54027;50.786;7.058;2022-09-25T09:57:54;100989.25;;;14.27;62.36
67109;BME280;54027;50.786;7.058;2022-09-25T10:00:21;100991.31;;;14.17;62.28
67109;BME280;54027;50.786;7.058;2022-09-25T10:02:49;100985.22;;;14.17;62.79
67109;BME280;54027;50.786;7.058;2022-09-25T10:07:50;100978.66;;;14.31;61.72
67109;BME280;54027;50.786;7.058;2022-09-25T10:10:16;100975.75;;;14.14;61.31
67109;BME280;54027;50.786;7.058;2022-09-25T10:12:48;100971.88;;;14.26;59.93
67109;BME280;54027;50.786;7.058;2022-09-25T10:15:27;100967.28;;;14.32;59.59
67109;BME280;54027;50.786;7.058;2022-09-25T10:17:54;100972.16;;;14.43;61.54
67109;BME280;54027;50.786;7.058;2022-09-25T10:20:22;100966.97;;;14.42;59.05
67109;BME280;54027;50.786;7.058;2022-09-25T10:22:48;100971.50;;;14.37;59.76
67109;BME280;54027;50.786;7.058;2022-09-25T10:25:14;100966.28;;;14.37;60.16
67109;BME280;54027;50.786;7.058;2022-09-25T10:27:57;100962.56;;;14.44;61.15
67109;BME280;54027;50.786;7.058;2022-09-25T10:30:23;100975.56;;;14.45;60.42
67109;BME280;54027;50.786;7.058;2022-09-25T10:32:56;100977.19;;;14.49;60.84
67109;BME280;54027;50.786;7.058;2022-09-25T10:37:51;100968.59;;;14.46;59.98
67109;BME280;54027;50.786;7.058;2022-09-25T10:43:02;100969.06;;;14.57;58.94
67109;BME280;54027;50.786;7.058;2022-09-25T10:45:29;100973.53;;;14.28;59.19
67109;BME280;54027;50.786;7.058;2022-09-25T10:47:55;100964.69;;;14.57;59.26
67109;BME280;54027;50.786;7.058;2022-09-25T10:50:39;100958.56;;;14.58;59.04
67109;BME280;54027;50.786;7.058;2022-09-25T10:53:04;100950.66;;;14.60;57.26
67109;BME280;54027;50.786;7.058;2022-09-25T10:55:34;100953.28;;;14.60;57.10
67109;BME280;54027;50.786;7.058;2022-09-25T11:00:27;100949.59;;;14.65;55.44
67109;BME280;54027;50.786;7.058;2022-09-25T11:02:54;100949.34;;;14.73;55.08
67109;BME280;54027;50.786;7.058;2022-09-25T11:05:21;100951.06;;;14.74;53.75
67109;BME280;54027;50.786;7.058;2022-09-25T11:07:52;100954.00;;;14.65;54.51
67109;BME280;54027;50.786;7.058;2022-09-25T11:10:23;100951.81;;;14.77;55.33
67109;BME280;54027;50.786;7.058;2022-09-25T11:12:50;100958.00;;;14.75;54.42
67109;BME280;54027;50.786;7.058;2022-09-25T11:15:20;100958.53;;;14.84;54.80
67109;BME280;54027;50.786;7.058;2022-09-25T11:17:51;100963.81;;;14.83;55.39
67109;BME280;54027;50.786;7.058;2022-09-25T11:20:29;100970.09;;;14.79;54.63
67109;BME280;54027;50.786;7.058;2022-09-25T11:23:02;100961.16;;;14.84;55.39
67109;BME280;54027;50.786;7.058;2022-09-25T11:25:33;100958.03;;;14.73;54.14
67109;BME280;54027;50.786;7.058;2022-09-25T11:28:02;100957.47;;;14.90;54.28
67109;BME280;54027;50.786;7.058;2022-09-25T11:30:31;100964.00;;;14.78;53.38
67109;BME280;54027;50.786;7.058;2022-09-25T11:33:03;100958.25;;;14.92;53.35
67109;BME280;54027;50.786;7.058;2022-09-25T11:41:39;100946.84;;;14.95;51.45
67109;BME280;54027;50.786;7.058;2022-09-25T11:51:32;100945.06;;;14.95;51.83
67109;BME280;54027;50.786;7.058;2022-09-25T11:56:40;100942.63;;;14.91;49.76
67109;BME280;54027;50.786;7.058;2022-09-25T12:01:49;100925.75;;;14.99;51.82
67109;BME280;54027;50.786;7.058;2022-09-25T12:04:25;100926.81;;;14.94;49.96
67109;BME280;54027;50.786;7.058;2022-09-25T12:09:59;100923.25;;;14.96;51.65
67109;BME280;54027;50.786;7.058;2022-09-25T12:14:52;100921.25;;;15.03;50.47
67109;BME280;54027;50.786;7.058;2022-09-25T12:17:42;100917.91;;;14.99;50.33
67109;BME280;54027;50.786;7.058;2022-09-25T12:30:18;100905.56;;;15.03;48.64
67109;BME280;54027;50.786;7.058;2022-09-25T12:33:00;100903.84;;;15.02;49.57
67109;BME280;54027;50.786;7.058;2022-09-25T12:40:51;100896.75;;;15.05;49.02
67109;BME280;54027;50.786;7.058;2022-09-25T12:43:23;100900.97;;;15.09;48.94
67109;BME280;54027;50.786;7.058;2022-09-25T12:45:53;100902.31;;;15.19;50.13
67109;BME280;54027;50.786;7.058;2022-09-25T12:50:50;100899.28;;;15.07;47.77
67109;BME280;54027;50.786;7.058;2022-09-25T12:55:52;100900.38;;;15.01;46.51
67109;BME280;54027;50.786;7.058;2022-09-25T13:01:18;100889.34;;;14.93;47.36
67109;BME280;54027;50.786;7.058;2022-09-25T13:03:51;100890.13;;;14.95;48.22
67109;BME280;54027;50.786;7.058;2022-09-25T13:09:45;100870.63;;;15.04;46.53
67109;BME280;54027;50.786;7.058;2022-09-25T13:11:53;100870.41;;;15.10;49.36
67109;BME280;54027;50.786;7.058;2022-09-25T13:14:32;100873.09;;;15.08;48.25
67109;BME280;54027;50.786;7.058;2022-09-25T13:16:59;100866.22;;;15.06;48.31
67109;BME280;54027;50.786;7.058;2022-09-25T13:19:29;100864.56;;;15.03;49.34
67109;BME280;54027;50.786;7.058;2022-09-25T13:22:00;100867.34;;;14.99;49.43
67109;BME280;54027;50.786;7.058;2022-09-25T13:24:27;100859.72;;;14.93;49.83
67109;BME280;54027;50.786;7.058;2022-09-25T13:26:54;100855.19;;;14.98;47.84
67109;BME280;54027;50.786;7.058;2022-09-25T13:29:25;100851.41;;;15.05;49.64
67109;BME280;54027;50.786;7.058;2022-09-25T13:32:00;100845.03;;;15.12;47.31
67109;BME280;54027;50.786;7.058;2022-09-25T13:34:26;100843.16;;;15.15;47.13
67109;BME280;54027;50.786;7.058;2022-09-25T13:36:52;100839.63;;;15.16;46.72
67109;BME280;54027;50.786;7.058;2022-09-25T13:42:06;100839.63;;;15.16;47.42
67109;BME280;54027;50.786;7.058;2022-09-25T13:44:36;100838.66;;;15.19;47.69
67109;BME280;54027;50.786;7.058;2022-09-25T14:00:22;100840.47;;;15.17;48.51
67109;BME280;54027;50.786;7.058;2022-09-25T14:02:48;100840.00;;;15.29;47.72
67109;BME280;54027;50.786;7.058;2022-09-25T14:05:15;100840.19;;;15.24;45.00
67109;BME280;54027;50.786;7.058;2022-09-25T14:07:41;100837.81;;;15.18;45.14
67109;BME280;54027;50.786;7.058;2022-09-25T14:10:07;100828.91;;;15.22;46.54
67109;BME280;54027;50.786;7.058;2022-09-25T14:12:35;100839.50;;;15.19;44.96
67109;BME280;54027;50.786;7.058;2022-09-25T14:17:51;100819.97;;;15.28;44.49
67109;BME280;54027;50.786;7.058;2022-09-25T14:20:37;100819.25;;;15.24;44.94
67109;BME280;54027;50.786;7.058;2022-09-25T14:23:05;100823.63;;;15.24;45.76
67109;BME280;54027;50.786;7.058;2022-09-25T14:25:31;100824.13;;;15.12;46.03
67109;BME280;54027;50.786;7.058;2022-09-25T14:27:58;100818.19;;;15.07;47.02
67109;BME280;54027;50.786;7.058;2022-09-25T14:30:24;100825.09;;;15.09;48.74
67109;BME280;54027;50.786;7.058;2022-09-25T14:48:34;100817.19;;;15.32;47.89
67109;BME280;54027;50.786;7.058;2022-09-25T14:51:14;100810.31;;;15.30;47.42
67109;BME280;54027;50.786;7.058;2022-09-25T14:53:45;100812.44;;;15.42;47.69
67109;BME280;54027;50.786;7.058;2022-09-25T14:56:13;100807.34;;;15.39;47.77
67109;BME280;54027;50.786;7.058;2022-09-25T14:58:42;100813.59;;;15.35;45.85
67109;BME280;54027;50.786;7.058;2022-09-25T15:01:19;100802.75;;;15.44;47.38
67109;BME280;54027;50.786;7.058;2022-09-25T15:03:47;100806.97;;;15.48;47.49
67109;BME280;54027;50.786;7.058;2022-09-25T15:06:21;100801.97;;;15.42;46.55
67109;BME280;54027;50.786;7.058;2022-09-25T15:08:48;100798.88;;;15.32;46.66
67109;BME280;54027;50.786;7.058;2022-09-25T15:11:15;100791.06;;;15.31;45.82
67109;BME280;54027;50.786;7.058;2022-09-25T15:13:41;100787.66;;;15.29;45.11
67109;BME280;54027;50.786;7.058;2022-09-25T15:16:11;100794.91;;;15.22;46.22
67109;BME280;54027;50.786;7.058;2022-09-25T15:18:56;100796.78;;;15.19;45.95
67109;BME280;54027;50.786;7.058;2022-09-25T15:21:27;100795.75;;;15.23;45.94
67109;BME280;54027;50.786;7.058;2022-09-25T15:23:54;100800.25;;;15.19;46.96
67109;BME280;54027;50.786;7.058;2022-09-25T15:26:20;100801.31;;;15.15;49.52